Relevés horaires Schaffen (Belgique)


Relevés horaires à Schaffen - Samedi 31 Mars 2018
Heure UTC1 Température [°C] Vent [km/h] Hum. [%] Pres.4 [hPa] Visi. [Km] Nébu. [octa] Préc.5 [mm] Cond.
2m. Res. Ros. Dir.2 Vit. Moy. Raf.3
23:00 5.8 4.2 4.4 O 7.4 9.3 13.0 91 1003.2(0.8/3h) 6 -- -- Il y a de la pluie faible et continue à la station au moment de l'observation
22:00 6.5 6.5 4.8 NNO 1.9 -- 3.7 89 1003(0.9/3h) 20 -- -- --
21:00 7.5 7.5 4.8 NNO 1.9 -- 11.1 83 1003(1.6/3h) 20 -- -- NA
20:00 7.6 7.6 4.5 NNO 1.9 -- 3.7 81 1002.5(1.8/3h) 20 -- -- --
19:00 7.8 7.8 4.7 NNO 1.9 -- 11.1 81 1002(1.8/3h) 20 -- -- NA
18:00 8.1 7.4 4.3 SO 5.6 -- 20.4 77 1001.2(1.6/3h) 20 -- 0.2/12h
Il y a de la pluie faible et continue à la station au moment de l'observation
17:00 8.9 8.3 3.9 O 5.6 -- 20.4 71 1000.6(0.8/3h) 20 -- -- NA
16:00 10.8 9.4 2.4 O 11.1 11.1 20.4 56 1000(0.0/3h) 20 -- -- --
15:00 12.8 12.8 1.7 SO 5.6 7.4 11.1 47 999.5(-0.5/3h) 20 -- -- --
14:00 12.7 12.7 2.6 O 3.7 -- 11.1 50 999.6(-0.3/3h) 20 -- -- --
13:00 12.7 12.7 3.5 OSO 3.7 -- 9.3 53 999.9(-0.1/3h) 20 -- -- --
13:00 12.7 12.7 3.5 OSO 3.7 -- 9.3 53 999.9(-0.1/3h) 20 -- -- --
12:00 12.1 12 3.3 SO 5.6 -- 13.0 55 1000(0.1/3h) 20 -- -- --
11:00 11.2 11 3.5 OSO 5.6 5.6 9.3 59 1000(0.4/3h) 20 -- -- --
10:00 9.9 9.9 4.2 SO 3.7 -- 7.4 68 1000.1(0.7/3h) 20 -- -- --
09:00 8.2 8.2 4.1 SSO 3.7 -- 7.4 75 999.9(1.0/3h) 20 -- -- --
08:00 6.4 6.4 4.1 NNO 1.9 -- 3.7 85 999.7(1.0/3h) 20 -- -- --
07:00 4.3 4.3 3.2 NNO 1.9 3.7 3.7 93 999.4(1.1/3h) 13 -- -- --
06:00 2.8 2.8 2.4 NNO 1.9 -- 9.3 97 999(0.6/3h) 7 -- 2/12h
--
05:00 2.7 2.7 2.1 NNO 1.9 -- 3.7 96 998.7(0.1/3h) 7 -- -- --
04:00 3.0 3.0 2.3 SE 3.7 -- 5.6 95 998.3(0.1/3h) 12 -- -- --
03:00 3.3 3.3 2.6 SSE 3.7 -- 9.3 95 998.4(-0.1/3h) 11 -- -- --
02:00 3.8 2.5 3.0 SSE 5.6 -- 7.4 94 998.5(-0.1/3h) 19 -- -- --
01:00 4.5 3.3 3.3 S 5.6 -- 9.3 92 998.4(0.0/3h) 20 -- -- --

1 Coordinated Universal Time. Actuellement il est 03:00 locale et 02:00 UTC.

2 Le vent souffle depuis la direction indiquée vers la direction oposée.

3 Les rafales max. sont disponible 40 min après l'heure du relevé.

4 Pour les stations d'altitude (plus de 600m) le géopotentiel du niveau le plus proche de la pression obligatoire est indiqué.

5 Les stations disposant d'un diffuseur peuvent indiquer "trace". Cela signifie que des précipitations ont touchés le sol mais que la quantité est inférieure à 0.1 mm.

Récapitulatif de la journée
Température [°C] Vent [km/h] Ensoleillement4 [h] Precipitations totale5 [mm] Pression [Hpa]
Min1 Max.2 Moy.3 Max. Min Max.
2.5 13.8 7.4 20.4 0 h 0 min 0 998.3 1003.2

1 Température minimale relevée entre 18:00 UTC la veille et 18:00 UTC le jour donné.

2 Température maximale relevée entre 06:00 UTC le jour donné et 06:00 UTC le lendemain.

3 Vent moyen de la journée basé sur les relevés horaires.

4 Ensoleillement en heures relevé entre 06:00 UTC la veille et 06:00 UTC le jour donné.

5 Précipitations totales tombées entre 06:00 UTC la jour donné et 06:00 UTC le lendemain.

Graphiques horaires